createdAt,value
2024-04-10T00:02:21.026Z,84.00
2024-04-10T00:04:47.832Z,84.10
2024-04-10T00:07:14.524Z,84.10
2024-04-10T00:09:41.062Z,84.10
2024-04-10T00:12:07.858Z,84.20
2024-04-10T00:14:34.664Z,84.10
2024-04-10T00:17:01.533Z,84.10
2024-04-10T00:19:28.209Z,84.30
2024-04-10T00:21:54.776Z,84.40
2024-04-10T00:24:21.326Z,84.50
2024-04-10T00:26:47.867Z,84.60
2024-04-10T00:29:14.464Z,84.80
2024-04-10T00:31:41.041Z,85.20
2024-04-10T00:34:07.732Z,85.50
2024-04-10T00:36:34.333Z,85.90
2024-04-10T00:39:00.854Z,85.90
2024-04-10T00:41:27.502Z,85.90
2024-04-10T00:43:54.182Z,86.10
2024-04-10T00:46:20.793Z,86.20
2024-04-10T00:48:47.589Z,86.30
2024-04-10T00:51:14.371Z,86.20
2024-04-10T00:53:40.939Z,86.30
2024-04-10T00:56:07.534Z,86.40
2024-04-10T00:58:34.139Z,86.40
2024-04-10T01:01:00.784Z,86.40
2024-04-10T01:03:27.420Z,86.50
2024-04-10T01:05:53.995Z,86.50
2024-04-10T01:08:20.636Z,86.60
2024-04-10T01:10:47.236Z,86.70
2024-04-10T01:13:16.658Z,86.60
2024-04-10T01:15:44.310Z,86.60
2024-04-10T01:18:10.969Z,86.60
2024-04-10T01:20:37.705Z,86.60
2024-04-10T01:23:04.342Z,86.50
2024-04-10T01:25:30.919Z,86.40
2024-04-10T01:27:57.477Z,86.40
2024-04-10T01:30:24.017Z,86.40
2024-04-10T01:32:50.690Z,86.50
2024-04-10T01:35:17.455Z,86.60
2024-04-10T01:37:44.039Z,86.60
2024-04-10T01:40:10.581Z,86.80
2024-04-10T01:42:37.105Z,86.80
2024-04-10T01:45:03.650Z,87.00
2024-04-10T01:47:30.279Z,86.90
2024-04-10T01:49:56.928Z,87.00
2024-04-10T01:52:23.487Z,87.20
2024-04-10T01:54:50.042Z,87.40
2024-04-10T01:57:16.606Z,87.40
2024-04-10T01:59:43.165Z,87.30
2024-04-10T02:02:09.846Z,87.30
2024-04-10T02:04:36.478Z,87.30
2024-04-10T02:07:03.050Z,87.30
2024-04-10T02:09:29.601Z,87.20
2024-04-10T02:11:56.231Z,87.10
2024-04-10T02:14:22.959Z,87.10
2024-04-10T02:16:49.736Z,87.00
2024-04-10T02:19:16.458Z,86.90
2024-04-10T02:21:42.999Z,86.70
2024-04-10T02:24:09.544Z,86.70
2024-04-10T02:26:36.223Z,86.70
2024-04-10T02:29:02.858Z,86.60
2024-04-10T02:31:29.443Z,86.70
2024-04-10T02:33:56.064Z,86.70
2024-04-10T02:36:22.669Z,86.70
2024-04-10T02:38:49.228Z,86.60
2024-04-10T02:41:15.804Z,86.60
2024-04-10T02:43:42.352Z,86.70
2024-04-10T02:46:08.937Z,86.70
2024-04-10T02:48:35.550Z,86.60
2024-04-10T02:51:02.144Z,86.70
2024-04-10T02:53:29.038Z,86.70
2024-04-10T02:55:55.907Z,86.80
2024-04-10T02:58:22.535Z,86.80
2024-04-10T03:00:49.110Z,86.80
2024-04-10T03:03:15.958Z,86.90
2024-04-10T03:05:42.634Z,87.40
2024-04-10T03:08:09.233Z,86.90
2024-04-10T03:10:35.799Z,86.90
2024-04-10T03:13:02.363Z,86.90
2024-04-10T03:15:28.911Z,86.80
2024-04-10T03:17:55.639Z,86.80
2024-04-10T03:20:22.264Z,86.90
2024-04-10T03:22:48.920Z,86.90
2024-04-10T03:25:15.545Z,86.90
2024-04-10T03:27:42.110Z,87.00
2024-04-10T03:30:08.663Z,87.60
2024-04-10T03:32:35.368Z,87.00
2024-04-10T03:35:02.249Z,87.10
2024-04-10T03:37:28.821Z,87.10
2024-04-10T03:39:55.372Z,87.10
2024-04-10T03:42:21.977Z,87.20
2024-04-10T03:44:48.532Z,87.40
2024-04-10T03:47:15.137Z,87.40
2024-04-10T03:49:41.715Z,87.30
2024-04-10T03:52:08.256Z,87.40
2024-04-10T03:54:34.801Z,87.50
2024-04-10T03:57:01.643Z,87.60
2024-04-10T03:59:28.288Z,87.60
2024-04-10T04:01:54.960Z,87.70
2024-04-10T04:04:21.579Z,87.70
2024-04-10T04:06:48.168Z,87.80
2024-04-10T04:09:14.723Z,87.70
2024-04-10T04:11:41.507Z,87.80
2024-04-10T04:14:08.198Z,87.90
2024-04-10T04:16:34.846Z,88.00
2024-04-10T04:19:01.415Z,88.00
2024-04-10T04:21:27.972Z,88.00
2024-04-10T04:23:54.509Z,88.00
2024-04-10T04:26:21.097Z,88.10
2024-04-10T04:28:47.768Z,88.10
2024-04-10T04:31:14.385Z,88.10
2024-04-10T04:33:40.996Z,88.20
2024-04-10T04:36:07.642Z,88.20
2024-04-10T04:38:34.251Z,88.10
2024-04-10T04:41:00.895Z,88.10
2024-04-10T04:43:27.450Z,88.10
2024-04-10T04:45:54.029Z,88.00
2024-04-10T04:48:20.661Z,87.90
2024-04-10T04:50:47.322Z,88.00
2024-04-10T04:53:14.021Z,87.90
2024-04-10T04:55:40.636Z,88.00
2024-04-10T04:58:07.186Z,88.00
2024-04-10T05:00:33.778Z,88.00
2024-04-10T05:03:00.636Z,88.00
2024-04-10T05:05:27.455Z,88.00
2024-04-10T05:07:54.084Z,88.10
2024-04-10T05:10:20.644Z,88.20
2024-04-10T05:12:47.196Z,88.10
2024-04-10T05:15:13.751Z,88.20
2024-04-10T05:17:40.462Z,88.20
2024-04-10T05:20:07.370Z,88.20
2024-04-10T05:22:34.036Z,88.10
2024-04-10T05:25:00.598Z,88.10
2024-04-10T05:27:27.148Z,88.20
2024-04-10T05:29:53.697Z,88.00
2024-04-10T05:32:20.412Z,87.90
2024-04-10T05:34:47.016Z,87.90
2024-04-10T05:37:13.618Z,87.90
2024-04-10T05:39:40.280Z,87.80
2024-04-10T05:42:06.824Z,87.80
2024-04-10T05:44:33.506Z,87.80
2024-04-10T05:47:00.299Z,87.60
2024-04-10T05:49:26.921Z,87.60
2024-04-10T05:51:53.511Z,87.60
2024-04-10T05:54:20.095Z,87.60
2024-04-10T05:56:46.926Z,87.80
2024-04-10T05:59:13.479Z,87.80
2024-04-10T06:01:40.020Z,87.80
2024-04-10T06:04:06.801Z,87.60
2024-04-10T06:06:34.055Z,87.50
2024-04-10T06:09:01.232Z,87.40
2024-04-10T06:11:27.853Z,87.30
2024-04-10T06:13:54.500Z,87.30
2024-04-10T06:16:21.092Z,87.30
2024-04-10T06:18:47.641Z,87.30
2024-04-10T06:21:14.190Z,87.20
2024-04-10T06:23:40.839Z,87.20
2024-04-10T06:26:07.500Z,87.20
2024-04-10T06:28:34.121Z,87.20
2024-04-10T06:31:00.735Z,87.30
2024-04-10T06:33:27.406Z,87.30
2024-04-10T06:35:54.023Z,87.40
2024-04-10T06:38:20.652Z,87.40
2024-04-10T06:40:47.274Z,87.50
2024-04-10T06:43:13.800Z,87.50
2024-04-10T06:45:40.364Z,87.40
2024-04-10T06:48:07.040Z,87.20
2024-04-10T06:50:33.870Z,87.10
2024-04-10T06:53:00.490Z,87.10
2024-04-10T06:55:27.058Z,86.90
2024-04-10T06:57:53.600Z,87.10
2024-04-10T07:00:20.225Z,87.10
2024-04-10T07:02:46.851Z,87.10
2024-04-10T07:05:13.569Z,87.00
2024-04-10T07:07:40.161Z,86.80
2024-04-10T07:10:06.731Z,86.70
2024-04-10T07:12:33.322Z,86.60
2024-04-10T07:14:59.875Z,86.60
2024-04-10T07:17:26.468Z,86.60
2024-04-10T07:19:53.075Z,86.20
2024-04-10T07:22:19.658Z,85.90
2024-04-10T07:24:46.219Z,85.70
2024-04-10T07:27:12.771Z,85.60
2024-04-10T07:29:39.504Z,85.50
2024-04-10T07:32:06.216Z,85.40
2024-04-10T07:34:32.998Z,85.20
2024-04-10T07:36:59.595Z,85.20
2024-04-10T07:39:26.150Z,85.00
2024-04-10T07:41:52.708Z,84.80
2024-04-10T07:44:19.350Z,84.70
2024-04-10T07:46:45.885Z,84.50
2024-04-10T07:49:12.680Z,84.10
2024-04-10T07:51:39.524Z,84.50
2024-04-10T07:54:06.104Z,84.30
2024-04-10T07:56:32.722Z,83.40
2024-04-10T07:58:59.344Z,83.20
2024-04-10T08:01:26.001Z,83.00
2024-04-10T08:03:52.933Z,82.80
2024-04-10T08:06:19.762Z,82.50
2024-04-10T08:08:46.326Z,82.20
2024-04-10T08:11:13.200Z,82.20
2024-04-10T08:13:39.891Z,81.90
2024-04-10T08:16:06.640Z,81.60
2024-04-10T08:18:33.560Z,81.30
2024-04-10T08:21:03.034Z,81.30
2024-04-10T08:23:29.620Z,81.10
2024-04-10T08:25:56.282Z,80.70
2024-04-10T08:28:22.858Z,80.40
2024-04-10T08:30:49.405Z,80.10
2024-04-10T08:33:16.035Z,80.10
2024-04-10T08:35:42.630Z,80.30
2024-04-10T08:38:09.205Z,79.80
2024-04-10T08:40:35.914Z,79.00
2024-04-10T08:43:02.579Z,78.70
2024-04-10T08:45:29.148Z,78.40
2024-04-10T08:47:55.783Z,78.30
2024-04-10T08:50:22.422Z,78.30
2024-04-10T08:52:48.971Z,77.50
2024-04-10T08:55:15.534Z,76.50
2024-04-10T08:57:42.148Z,75.70
2024-04-10T09:00:08.735Z,75.30
2024-04-10T09:02:35.283Z,74.60
2024-04-10T09:05:02.016Z,74.20
2024-04-10T09:07:28.646Z,74.30
2024-04-10T09:09:55.331Z,74.60
2024-04-10T09:12:21.936Z,74.90
2024-04-10T09:14:48.645Z,75.40
2024-04-10T09:17:15.248Z,75.40
2024-04-10T09:19:43.628Z,75.50
2024-04-10T09:22:10.996Z,75.60
2024-04-10T09:24:37.529Z,75.30
2024-04-10T09:27:04.343Z,74.60
2024-04-10T09:29:31.109Z,74.00
2024-04-10T09:31:57.895Z,74.00
2024-04-10T09:34:24.713Z,73.80
2024-04-10T09:36:51.538Z,73.50
2024-04-10T09:39:18.083Z,72.80
2024-04-10T09:41:44.677Z,72.00
2024-04-10T09:44:11.277Z,72.00
2024-04-10T09:46:37.834Z,72.20
2024-04-10T09:49:04.449Z,72.50
2024-04-10T09:51:31.057Z,72.60
2024-04-10T09:53:57.711Z,72.20
2024-04-10T09:56:24.341Z,70.80
2024-04-10T09:58:50.942Z,69.70
2024-04-10T10:01:17.525Z,68.90
2024-04-10T10:03:44.273Z,68.80
2024-04-10T10:06:10.944Z,68.90
2024-04-10T10:08:37.631Z,69.50
2024-04-10T10:11:04.418Z,69.60
2024-04-10T10:13:31.008Z,69.70
2024-04-10T10:15:57.577Z,69.60
2024-04-10T10:18:31.286Z,69.40
2024-04-10T10:20:59.600Z,68.90
2024-04-10T10:23:26.260Z,68.10
2024-04-10T10:25:52.927Z,67.70
2024-04-10T10:28:20.100Z,67.90
2024-04-10T10:30:46.826Z,68.20
2024-04-10T10:33:16.451Z,68.30
2024-04-10T10:35:43.240Z,68.60
2024-04-10T10:38:09.818Z,68.40
2024-04-10T10:40:36.720Z,67.00
2024-04-10T10:43:03.419Z,66.30
2024-04-10T10:45:29.944Z,66.40
2024-04-10T10:47:56.687Z,66.60
2024-04-10T10:50:23.386Z,66.60
2024-04-10T10:52:49.949Z,66.50
2024-04-10T10:55:16.502Z,66.80
2024-04-10T10:57:43.060Z,67.00
2024-04-10T11:00:09.607Z,66.20
2024-04-10T11:02:36.252Z,65.10
2024-04-10T11:05:02.957Z,63.50
2024-04-10T11:07:29.674Z,63.00
2024-04-10T11:09:56.208Z,62.60
2024-04-10T11:12:22.837Z,61.30
2024-04-10T11:14:49.546Z,60.80
2024-04-10T11:17:16.270Z,61.00
2024-04-10T11:19:47.926Z,61.40
2024-04-10T11:22:19.057Z,61.30
2024-04-10T11:24:45.598Z,61.00
2024-04-10T11:27:12.150Z,60.90
2024-04-10T11:29:38.754Z,61.00
2024-04-10T11:32:05.327Z,61.40
2024-04-10T11:34:31.917Z,61.60
2024-04-10T11:36:58.501Z,62.20
2024-04-10T11:39:25.063Z,62.70
2024-04-10T11:41:51.760Z,62.70
2024-04-10T11:44:18.455Z,62.20
2024-04-10T11:46:45.081Z,60.60
2024-04-10T11:49:11.821Z,58.70
2024-04-10T11:51:38.417Z,57.80
2024-04-10T11:54:05.104Z,57.90
2024-04-10T11:56:31.781Z,57.90
2024-04-10T11:58:58.341Z,57.40
2024-04-10T12:01:24.935Z,56.60
2024-04-10T12:03:51.629Z,56.10
2024-04-10T12:06:18.415Z,54.80
2024-04-10T12:08:45.123Z,54.10
2024-04-10T12:11:11.700Z,54.00
2024-04-10T12:13:38.288Z,53.40
2024-04-10T12:16:04.837Z,52.70
2024-04-10T12:18:31.534Z,52.20
2024-04-10T12:20:58.195Z,51.40
2024-04-10T12:23:24.904Z,51.10
2024-04-10T12:25:51.485Z,51.10
2024-04-10T12:28:18.024Z,51.40
2024-04-10T12:30:44.574Z,52.00
2024-04-10T12:33:11.386Z,52.20
2024-04-10T12:35:38.142Z,51.80
2024-04-10T12:38:08.667Z,51.10
2024-04-10T12:40:36.425Z,50.40
2024-04-10T12:43:03.023Z,50.10
2024-04-10T12:45:29.557Z,49.40
2024-04-10T12:47:56.181Z,49.10
2024-04-10T12:50:22.924Z,48.70
2024-04-10T12:52:49.506Z,48.10
2024-04-10T12:55:16.034Z,48.40
2024-04-10T12:57:42.580Z,48.70
2024-04-10T13:00:09.182Z,49.20
2024-04-10T13:02:35.858Z,48.80
2024-04-10T13:05:02.609Z,49.70
2024-04-10T13:07:29.347Z,50.10
2024-04-10T13:09:55.916Z,49.70
2024-04-10T13:12:22.514Z,50.50
2024-04-10T13:14:49.207Z,51.10
2024-04-10T13:17:15.896Z,51.40
2024-04-10T13:19:43.014Z,51.10
2024-04-10T13:22:09.576Z,50.80
2024-04-10T13:24:36.136Z,50.70
2024-04-10T13:27:02.790Z,51.40
2024-04-10T13:29:29.405Z,51.80
2024-04-10T13:31:55.976Z,51.00
2024-04-10T13:34:22.826Z,50.90
2024-04-10T13:36:49.562Z,50.50
2024-04-10T13:39:16.151Z,50.50
2024-04-10T13:41:42.769Z,50.50
2024-04-10T13:44:09.381Z,50.00
2024-04-10T13:46:36.005Z,48.40
2024-04-10T13:49:02.564Z,47.70
2024-04-10T13:51:29.118Z,47.40
2024-04-10T13:53:55.938Z,47.20
2024-04-10T13:56:22.946Z,46.90
2024-04-10T13:58:49.558Z,46.30
2024-04-10T14:01:16.150Z,46.30
2024-04-10T14:03:43.010Z,46.90
2024-04-10T14:06:09.929Z,46.90
2024-04-10T14:08:36.703Z,45.80
2024-04-10T14:11:03.401Z,45.60
2024-04-10T14:13:29.986Z,46.20
2024-04-10T14:15:56.720Z,46.60
2024-04-10T14:18:23.443Z,46.20
2024-04-10T14:20:50.081Z,45.40
2024-04-10T14:23:16.704Z,44.90
2024-04-10T14:25:43.290Z,44.40
2024-04-10T14:28:09.837Z,44.40
2024-04-10T14:30:36.381Z,44.30
2024-04-10T14:33:03.099Z,43.70
2024-04-10T14:35:29.744Z,42.80
2024-04-10T14:37:56.291Z,42.60
2024-04-10T14:40:22.829Z,42.60
2024-04-10T14:42:49.362Z,42.00
2024-04-10T14:45:15.906Z,42.00
2024-04-10T14:47:42.598Z,42.40
2024-04-10T14:50:09.221Z,42.10
2024-04-10T14:52:35.781Z,42.00
2024-04-10T14:55:02.314Z,41.80
2024-04-10T14:57:28.864Z,41.20
2024-04-10T14:59:55.435Z,41.40
2024-04-10T15:02:22.085Z,41.50
2024-04-10T15:04:48.923Z,41.10
2024-04-10T15:07:15.512Z,41.20
2024-04-10T15:09:42.058Z,40.70
2024-04-10T15:12:08.750Z,40.70
2024-04-10T15:14:35.456Z,40.50
2024-04-10T15:17:02.018Z,40.50
2024-04-10T15:19:28.567Z,40.10
2024-04-10T15:21:55.116Z,40.10
2024-04-10T15:24:21.718Z,40.80
2024-04-10T15:26:48.404Z,41.10
2024-04-10T15:29:15.027Z,41.00
2024-04-10T15:31:41.592Z,41.40
2024-04-10T15:34:08.528Z,41.60
2024-04-10T15:36:35.329Z,41.50
2024-04-10T15:39:01.999Z,41.70
2024-04-10T15:41:28.783Z,41.50
2024-04-10T15:43:55.418Z,41.10
2024-04-10T15:46:21.958Z,41.10
2024-04-10T15:48:48.716Z,41.10
2024-04-10T15:51:15.561Z,41.10
2024-04-10T15:53:42.430Z,41.20
2024-04-10T15:56:09.015Z,41.30
2024-04-10T15:58:35.562Z,41.30
2024-04-10T16:01:02.237Z,41.50
2024-04-10T16:03:29.006Z,41.90
2024-04-10T16:05:55.628Z,41.70
2024-04-10T16:08:22.214Z,41.60
2024-04-10T16:10:48.823Z,41.50
2024-04-10T16:13:15.385Z,41.20
2024-04-10T16:15:42.085Z,41.40
2024-04-10T16:18:08.848Z,41.30
2024-04-10T16:20:35.596Z,41.50
2024-04-10T16:23:02.143Z,41.80
2024-04-10T16:25:28.682Z,41.70
2024-04-10T16:27:55.235Z,41.70
2024-04-10T16:30:21.773Z,41.80
2024-04-10T16:32:48.450Z,41.80
2024-04-10T16:35:15.248Z,42.20
2024-04-10T16:37:41.870Z,42.00
2024-04-10T16:40:08.407Z,42.10
2024-04-10T16:42:34.971Z,42.30
2024-04-10T17:43:30.872Z,46.10
2024-04-10T17:45:57.548Z,46.20
2024-04-10T17:48:24.198Z,46.40
2024-04-10T17:50:50.886Z,46.80
2024-04-10T17:53:17.541Z,47.00
2024-04-10T17:55:44.141Z,47.20
2024-04-10T17:58:10.688Z,47.40
2024-04-10T18:00:37.224Z,47.60
2024-04-10T18:03:04.056Z,48.00
2024-04-10T18:05:30.814Z,48.30
2024-04-10T18:07:57.641Z,48.80
2024-04-10T18:10:24.188Z,49.20
2024-04-10T18:12:50.768Z,49.50
2024-04-10T18:15:17.325Z,50.00
2024-04-10T18:17:44.104Z,50.50
2024-04-10T18:20:10.769Z,51.00
2024-04-10T18:22:37.336Z,51.30
2024-04-10T18:25:03.894Z,51.60
2024-04-10T18:27:30.455Z,52.00
2024-04-10T18:29:57.102Z,52.40
2024-04-10T18:32:23.738Z,52.70
2024-04-10T18:34:50.337Z,52.90
2024-04-10T18:37:16.896Z,53.00
2024-04-10T18:39:43.454Z,53.20
2024-04-10T18:42:10.060Z,53.30
2024-04-10T18:44:36.781Z,53.30
2024-04-10T18:47:03.446Z,53.50
2024-04-10T18:49:30.183Z,53.80
2024-04-10T18:51:56.963Z,54.00
2024-04-10T18:54:23.520Z,54.20
2024-04-10T18:56:50.114Z,54.40
2024-04-10T18:59:16.758Z,54.40
2024-04-10T19:01:43.379Z,54.40
2024-04-10T19:04:10.106Z,54.50
2024-04-10T19:06:36.758Z,54.70
2024-04-10T19:09:03.352Z,54.80
2024-04-10T19:11:30.310Z,55.00
2024-04-10T19:13:56.897Z,55.30
2024-04-10T19:16:23.475Z,55.60
2024-04-10T19:18:50.143Z,55.80
2024-04-10T19:21:16.745Z,56.20
2024-04-10T19:23:43.324Z,56.50
2024-04-10T19:26:09.898Z,56.80
2024-04-10T19:28:36.460Z,57.00
2024-04-10T19:31:03.022Z,57.10
2024-04-10T19:33:30.014Z,57.30
2024-04-10T19:35:56.898Z,57.30
2024-04-10T19:38:23.548Z,57.20
2024-04-10T19:40:50.110Z,57.10
2024-04-10T19:43:16.652Z,57.20
2024-04-10T19:45:43.194Z,57.30
2024-04-10T19:48:09.936Z,57.20
2024-04-10T19:50:36.611Z,57.20
2024-04-10T19:53:03.243Z,57.10
2024-04-10T19:55:29.779Z,57.10
2024-04-10T19:57:56.314Z,57.10
2024-04-10T20:00:22.879Z,57.20
2024-04-10T20:02:49.528Z,57.30
2024-04-10T20:05:16.290Z,57.30
2024-04-10T20:07:42.843Z,57.40
2024-04-10T20:10:09.387Z,57.40
2024-04-10T20:12:36.130Z,57.50
2024-04-10T20:15:02.886Z,57.50
2024-04-10T20:17:29.618Z,57.60
2024-04-10T20:19:56.404Z,57.70
2024-04-10T20:22:22.992Z,57.70
2024-04-10T20:24:49.552Z,57.80
2024-04-10T20:27:16.090Z,57.90
2024-04-10T20:29:42.900Z,58.00
2024-04-10T20:32:09.526Z,58.10
2024-04-10T20:34:36.104Z,58.10
2024-04-10T20:37:02.685Z,58.20
2024-04-10T20:39:29.226Z,58.20
2024-04-10T20:41:55.883Z,58.40
2024-04-10T20:44:22.530Z,58.40
2024-04-10T20:46:49.118Z,58.60
2024-04-10T20:49:15.851Z,58.70
2024-04-10T20:51:42.468Z,58.80
2024-04-10T20:54:09.063Z,58.90
2024-04-10T20:56:35.668Z,59.00
2024-04-10T20:59:02.235Z,59.10
2024-04-10T21:01:29.121Z,59.10
2024-04-10T21:03:55.807Z,59.10
2024-04-10T21:06:22.484Z,59.20
2024-04-10T21:08:50.016Z,59.20
2024-04-10T21:11:17.635Z,59.30
2024-04-10T21:13:44.396Z,59.40
2024-04-10T21:16:10.987Z,59.40
2024-04-10T21:18:37.730Z,59.50
2024-04-10T21:21:04.539Z,59.60
2024-04-10T21:23:31.117Z,59.70
2024-04-10T21:25:57.714Z,59.70
2024-04-10T21:28:24.265Z,59.80
2024-04-10T21:30:50.803Z,59.90
2024-04-10T21:33:17.454Z,59.90
2024-04-10T21:35:44.107Z,60.00
2024-04-10T21:38:10.701Z,59.90
2024-04-10T21:40:37.234Z,60.00
2024-04-10T21:43:03.825Z,60.00
2024-04-10T21:45:30.368Z,60.10
2024-04-10T21:47:57.015Z,60.20
2024-04-10T21:50:23.689Z,60.30
2024-04-10T21:52:50.244Z,60.30
2024-04-10T21:55:16.807Z,60.30
2024-04-10T21:57:43.350Z,60.40
2024-04-10T22:00:26.991Z,60.50
2024-04-10T22:02:56.607Z,60.60
2024-04-10T22:05:23.615Z,60.80
2024-04-10T22:07:50.585Z,60.90
2024-04-10T22:10:17.337Z,61.00
2024-04-10T22:12:44.234Z,61.20
2024-04-10T22:15:11.037Z,61.10
2024-04-10T22:17:37.730Z,61.20
2024-04-10T22:20:04.335Z,61.30
2024-04-10T22:22:30.886Z,61.40
2024-04-10T22:24:57.416Z,61.40
2024-04-10T22:27:23.967Z,61.50
2024-04-10T22:29:50.535Z,61.60
2024-04-10T22:32:17.097Z,61.60
2024-04-10T22:34:43.786Z,61.70
2024-04-10T22:37:10.411Z,61.70
2024-04-10T22:39:36.990Z,61.70
2024-04-10T22:42:03.642Z,61.70
2024-04-10T22:44:30.274Z,61.80
2024-04-10T22:46:56.836Z,61.80
2024-04-10T22:49:23.366Z,62.00
2024-04-10T22:51:49.928Z,62.00
2024-04-10T22:54:16.498Z,62.10
2024-04-10T22:56:43.057Z,62.20
2024-04-10T22:59:09.636Z,62.30
2024-04-10T23:01:36.181Z,62.30
2024-04-10T23:04:02.882Z,62.40
2024-04-10T23:07:07.092Z,62.50
2024-04-10T23:09:16.181Z,62.60
2024-04-10T23:11:42.853Z,62.60
2024-04-10T23:14:09.509Z,62.70
2024-04-10T23:16:36.117Z,63.30
2024-04-10T23:19:16.320Z,62.70
2024-04-10T23:21:44.370Z,62.80
2024-04-10T23:24:10.935Z,62.80
2024-04-10T23:26:37.574Z,62.80
2024-04-10T23:29:04.254Z,62.90
2024-04-10T23:31:30.889Z,63.00
2024-04-10T23:33:58.207Z,63.10
2024-04-10T23:36:24.977Z,63.20
2024-04-10T23:38:51.598Z,63.20
2024-04-10T23:41:18.226Z,63.40
2024-04-10T23:43:44.791Z,63.50
2024-04-10T23:46:11.347Z,63.50
2024-04-10T23:48:38.057Z,63.60
2024-04-10T23:51:04.790Z,63.70
2024-04-10T23:53:31.407Z,63.80
2024-04-10T23:55:57.970Z,63.90
2024-04-10T23:58:24.522Z,63.90
